createdAt,value
2019-01-06T00:00:24.012Z,97.28
2019-01-06T00:03:20.943Z,97.14
2019-01-06T00:06:07.691Z,97.02
2019-01-06T00:09:01.519Z,96.58
2019-01-06T00:11:45.371Z,96.58
2019-01-06T00:14:51.725Z,96.37
2019-01-06T00:17:50.788Z,96.49
2019-01-06T00:20:38.865Z,96.51
2019-01-06T00:23:29.709Z,96.51
2019-01-06T00:26:24.792Z,96.85
2019-01-06T00:29:11.781Z,96.40
2019-01-06T00:31:59.741Z,96.73
2019-01-06T00:34:53.908Z,96.80
2019-01-06T00:37:40.925Z,96.78
2019-01-06T00:40:28.879Z,96.86
2019-01-06T00:43:08.979Z,96.32
2019-01-06T00:46:02.597Z,96.65
2019-01-06T00:49:08.748Z,96.84
2019-01-06T00:52:11.746Z,96.60
2019-01-06T00:55:05.477Z,96.54
2019-01-06T00:58:05.957Z,96.37
2019-01-06T01:00:53.954Z,95.75
2019-01-06T01:03:40.014Z,95.75
2019-01-06T01:06:26.874Z,96.16
2019-01-06T01:09:33.964Z,96.10
2019-01-06T01:12:20.061Z,96.57
2019-01-06T01:15:05.544Z,96.59
2019-01-06T01:17:52.373Z,96.59
2019-01-06T01:20:39.258Z,96.03
2019-01-06T01:23:25.309Z,96.37
2019-01-06T01:26:16.528Z,96.37
2019-01-06T01:29:18.390Z,96.43
2019-01-06T01:32:05.227Z,96.29
2019-01-06T01:34:54.260Z,96.22
2019-01-06T01:37:48.091Z,96.25
2019-01-06T01:40:45.213Z,96.44
2019-01-06T01:43:31.913Z,96.42
2019-01-06T01:46:38.107Z,96.42
2019-01-06T01:49:32.118Z,96.23
2019-01-06T01:52:20.111Z,96.23
2019-01-06T01:55:14.012Z,96.17
2019-01-06T01:57:58.768Z,96.16
2019-01-06T02:00:39.082Z,96.16
2019-01-06T02:03:33.299Z,96.30
2019-01-06T02:06:27.143Z,96.33
2019-01-06T02:09:13.945Z,96.33
2019-01-06T02:12:04.966Z,96.00
2019-01-06T02:14:59.186Z,96.00
2019-01-06T02:17:45.023Z,96.36
2019-01-06T02:20:33.920Z,96.35
2019-01-06T02:23:21.266Z,96.35
2019-01-06T02:26:04.870Z,96.04
2019-01-06T02:28:54.154Z,95.62
2019-01-06T02:31:41.123Z,95.70
2019-01-06T02:34:27.818Z,95.82
2019-01-06T02:37:31.425Z,95.82
2019-01-06T02:40:18.038Z,95.86
2019-01-06T02:43:10.110Z,95.68
2019-01-06T02:45:54.163Z,95.74
2019-01-06T02:48:40.914Z,95.74
2019-01-06T02:51:28.867Z,95.77
2019-01-06T02:54:14.543Z,95.71
2019-01-06T02:57:14.776Z,95.71
2019-01-06T03:00:00.306Z,95.58
2019-01-06T03:02:51.070Z,95.58
2019-01-06T03:05:48.184Z,95.82
2019-01-06T03:08:39.214Z,95.82
2019-01-06T03:11:36.065Z,95.71
2019-01-06T03:14:17.794Z,95.71
2019-01-06T03:17:18.304Z,95.59
2019-01-06T03:20:05.160Z,95.42
2019-01-06T03:22:53.393Z,95.42
2019-01-06T03:25:50.782Z,95.46
2019-01-06T03:28:37.537Z,95.43
2019-01-06T03:31:24.704Z,95.28
2019-01-06T03:34:05.367Z,95.28
2019-01-06T03:36:54.712Z,95.12
2019-01-06T03:39:55.044Z,95.34
2019-01-06T03:42:34.410Z,95.26
2019-01-06T03:45:21.449Z,95.26
2019-01-06T03:48:18.744Z,95.23
2019-01-06T03:51:05.412Z,95.17
2019-01-06T03:53:52.408Z,95.17
2019-01-06T03:56:39.402Z,95.40
2019-01-06T03:59:26.261Z,95.66
2019-01-06T04:02:13.255Z,95.48
2019-01-06T04:05:11.699Z,95.40
2019-01-06T04:07:58.578Z,95.33
2019-01-06T04:10:45.423Z,95.42
2019-01-06T04:13:48.663Z,95.15
2019-01-06T04:16:35.665Z,95.15
2019-01-06T04:19:20.021Z,95.19
2019-01-06T04:22:09.713Z,95.11
2019-01-06T04:25:09.836Z,95.16
2019-01-06T04:28:12.938Z,94.72
2019-01-06T04:30:59.538Z,94.72
2019-01-06T04:33:47.532Z,95.11
2019-01-06T04:36:34.331Z,95.03
2019-01-06T04:39:25.989Z,95.11
2019-01-06T04:42:12.794Z,95.25
2019-01-06T04:45:11.286Z,95.07
2019-01-06T04:48:10.409Z,95.25
2019-01-06T04:51:13.925Z,95.32
2019-01-06T04:54:20.077Z,95.32
2019-01-06T04:57:06.674Z,95.80
2019-01-06T05:00:06.918Z,95.80
2019-01-06T05:02:55.777Z,95.57
2019-01-06T05:05:37.786Z,95.48
2019-01-06T05:08:34.735Z,95.33
2019-01-06T05:11:31.176Z,95.64
2019-01-06T05:14:11.197Z,95.64
2019-01-06T05:16:56.980Z,95.64
2019-01-06T05:19:43.749Z,95.67
2019-01-06T05:22:41.085Z,95.91
2019-01-06T05:25:41.390Z,95.59
2019-01-06T05:28:35.427Z,95.59
2019-01-06T05:31:22.256Z,95.82
2019-01-06T05:34:09.267Z,95.73
2019-01-06T05:36:48.340Z,95.62
2019-01-06T05:39:36.379Z,95.34
2019-01-06T05:42:27.967Z,95.34
2019-01-06T05:45:31.198Z,95.53
2019-01-06T05:48:14.982Z,95.32
2019-01-06T05:51:01.653Z,95.32
2019-01-06T05:53:48.457Z,95.51
2019-01-06T05:56:28.396Z,95.51
2019-01-06T05:59:26.991Z,95.59
2019-01-06T06:02:24.161Z,95.46
2019-01-06T06:05:14.748Z,95.85
2019-01-06T06:08:01.613Z,95.71
2019-01-06T06:10:49.650Z,95.33
2019-01-06T06:13:36.686Z,95.62
2019-01-06T06:16:24.696Z,95.62
2019-01-06T06:19:12.637Z,95.45
2019-01-06T06:21:52.751Z,95.45
2019-01-06T06:24:40.780Z,95.26
2019-01-06T06:27:31.685Z,95.35
2019-01-06T06:30:16.196Z,95.26
2019-01-06T06:33:10.237Z,95.26
2019-01-06T06:35:53.566Z,95.45
2019-01-06T06:38:40.573Z,95.52
2019-01-06T06:41:20.038Z,95.51
2019-01-06T06:44:05.538Z,95.51
2019-01-06T06:47:05.670Z,95.33
2019-01-06T06:49:53.636Z,95.40
2019-01-06T06:52:42.230Z,95.62
2019-01-06T06:55:28.825Z,95.62
2019-01-06T06:58:23.935Z,95.63
2019-01-06T07:01:29.751Z,95.64
2019-01-06T07:04:16.446Z,95.64
2019-01-06T07:07:03.116Z,95.64
2019-01-06T07:09:50.065Z,96.09
2019-01-06T07:12:44.287Z,95.58
2019-01-06T07:15:31.233Z,95.54
2019-01-06T07:18:18.187Z,95.32
2019-01-06T07:21:06.270Z,95.32
2019-01-06T07:23:57.739Z,95.76
2019-01-06T07:26:45.713Z,95.55
2019-01-06T07:29:32.182Z,95.54
2019-01-06T07:32:32.118Z,95.45
2019-01-06T07:35:19.045Z,95.45
2019-01-06T07:38:19.434Z,95.36
2019-01-06T07:41:12.974Z,95.56
2019-01-06T07:44:19.088Z,95.33
2019-01-06T07:47:16.334Z,95.54
2019-01-06T07:50:20.770Z,95.53
2019-01-06T07:53:17.811Z,95.36
2019-01-06T07:56:08.522Z,96.17
2019-01-06T07:59:12.104Z,96.22
2019-01-06T08:02:00.175Z,96.22
2019-01-06T08:04:44.425Z,96.56
2019-01-06T08:07:31.520Z,97.08
2019-01-06T08:10:25.921Z,97.19
2019-01-06T08:13:19.924Z,97.40
2019-01-06T08:16:06.893Z,97.69
2019-01-06T08:19:07.121Z,97.58
2019-01-06T08:22:01.054Z,97.37
2019-01-06T08:24:58.096Z,97.55
2019-01-06T08:27:44.915Z,97.55
2019-01-06T08:30:31.863Z,97.68
2019-01-06T08:33:18.418Z,97.73
2019-01-06T08:36:19.140Z,97.69
2019-01-06T08:39:05.897Z,97.69
2019-01-06T08:41:56.940Z,97.44
2019-01-06T08:44:43.972Z,97.75
2019-01-06T08:47:38.187Z,97.37
2019-01-06T08:50:19.988Z,97.99
2019-01-06T08:53:14.228Z,97.99
2019-01-06T08:56:05.745Z,97.78
2019-01-06T08:58:54.733Z,97.78
2019-01-06T09:01:38.350Z,97.22
2019-01-06T09:04:34.308Z,96.83
2019-01-06T09:07:28.136Z,96.83
2019-01-06T09:10:08.565Z,97.03
2019-01-06T09:12:55.358Z,96.90
2019-01-06T09:15:42.377Z,96.72
2019-01-06T09:18:37.392Z,96.72
2019-01-06T09:21:40.638Z,96.84
2019-01-06T09:24:36.240Z,96.98
2019-01-06T09:27:42.650Z,96.98
2019-01-06T09:30:29.702Z,96.97
2019-01-06T09:33:26.983Z,94.89
2019-01-06T09:36:33.647Z,93.51
2019-01-06T09:39:20.803Z,93.51
2019-01-06T09:42:05.105Z,92.26
2019-01-06T09:44:53.516Z,93.67
2019-01-06T09:47:33.413Z,94.79
2019-01-06T09:50:33.284Z,94.97
2019-01-06T09:53:20.097Z,94.60
2019-01-06T09:56:07.123Z,94.65
2019-01-06T09:58:58.296Z,94.65
2019-01-06T10:01:45.404Z,94.70
2019-01-06T10:04:35.092Z,94.16
2019-01-06T10:07:30.576Z,92.85
2019-01-06T10:10:15.198Z,92.85
2019-01-06T10:13:03.311Z,92.33
2019-01-06T10:15:50.286Z,92.97
2019-01-06T10:18:44.944Z,92.97
2019-01-06T10:21:40.024Z,93.39
2019-01-06T10:24:37.436Z,92.31
2019-01-06T10:27:17.483Z,92.31
2019-01-06T10:30:14.465Z,92.74
2019-01-06T10:33:08.637Z,92.30
2019-01-06T10:36:05.620Z,92.30
2019-01-06T10:38:52.395Z,92.54
2019-01-06T10:41:39.400Z,92.43
2019-01-06T10:44:26.601Z,92.43
2019-01-06T10:47:08.526Z,92.43
2019-01-06T10:50:02.806Z,92.43
2019-01-06T10:52:53.686Z,92.29
2019-01-06T10:55:47.857Z,91.82
2019-01-06T10:58:34.826Z,91.83
2019-01-06T11:01:29.326Z,91.83
2019-01-06T11:04:27.479Z,91.39
2019-01-06T11:07:18.426Z,90.53
2019-01-06T11:10:06.478Z,89.01
2019-01-06T11:13:04.236Z,90.15
2019-01-06T11:15:55.137Z,90.15
2019-01-06T11:18:41.911Z,90.14
2019-01-06T11:21:28.838Z,89.52
2019-01-06T11:24:10.963Z,89.10
2019-01-06T11:26:57.588Z,89.88
2019-01-06T11:29:52.033Z,88.39
2019-01-06T11:32:46.217Z,88.51
2019-01-06T11:35:33.891Z,88.14
2019-01-06T11:38:21.084Z,88.73
2019-01-06T11:41:13.245Z,88.73
2019-01-06T11:44:00.069Z,87.53
2019-01-06T11:46:46.944Z,88.56
2019-01-06T11:49:34.030Z,88.56
2019-01-06T11:52:24.822Z,88.31
2019-01-06T11:55:24.794Z,88.40
2019-01-06T11:58:17.050Z,88.49
2019-01-06T12:01:03.959Z,88.23
2019-01-06T12:04:10.745Z,87.96
2019-01-06T12:07:07.906Z,88.28
2019-01-06T12:10:14.309Z,88.28
2019-01-06T12:13:03.208Z,87.97
2019-01-06T12:15:54.204Z,87.78
2019-01-06T12:18:53.229Z,87.61
2019-01-06T12:21:44.371Z,87.61
2019-01-06T12:24:33.928Z,88.32
2019-01-06T12:27:30.862Z,88.32
2019-01-06T12:30:30.969Z,88.57
2019-01-06T12:33:19.419Z,87.89
2019-01-06T12:36:09.701Z,87.70
2019-01-06T12:39:01.898Z,86.19
2019-01-06T12:42:08.857Z,86.19
2019-01-06T12:45:00.153Z,86.55
2019-01-06T12:48:05.695Z,86.40
2019-01-06T12:50:54.987Z,85.61
2019-01-06T12:54:20.021Z,86.20
2019-01-06T12:57:28.110Z,86.75
2019-01-06T13:00:17.484Z,87.61
2019-01-06T13:03:11.922Z,85.30
2019-01-06T13:06:03.862Z,85.30
2019-01-06T13:08:54.822Z,85.13
2019-01-06T13:11:44.542Z,85.18
2019-01-06T13:14:44.232Z,84.66
2019-01-06T13:17:48.074Z,85.24
2019-01-06T13:20:35.536Z,85.24
2019-01-06T13:23:39.890Z,85.34
2019-01-06T13:26:40.918Z,85.34
2019-01-06T13:29:27.780Z,85.70
2019-01-06T13:32:18.326Z,85.70
2019-01-06T13:35:06.694Z,85.18
2019-01-06T13:38:14.169Z,84.86
2019-01-06T13:41:03.127Z,84.86
2019-01-06T13:43:52.364Z,85.40
2019-01-06T13:46:40.572Z,84.65
2019-01-06T13:49:27.505Z,84.45
2019-01-06T13:52:25.136Z,84.50
2019-01-06T13:55:28.978Z,85.15
2019-01-06T13:58:16.535Z,84.98
2019-01-06T14:01:04.181Z,84.63
2019-01-06T14:04:13.131Z,85.07
2019-01-06T14:07:00.440Z,85.68
2019-01-06T14:09:48.072Z,85.11
2019-01-06T14:12:38.280Z,84.67
2019-01-06T14:15:29.662Z,84.67
2019-01-06T14:18:16.341Z,85.22
2019-01-06T14:21:03.495Z,84.50
2019-01-06T14:23:50.528Z,85.34
2019-01-06T14:26:37.426Z,85.34
2019-01-06T14:29:23.367Z,85.24
2019-01-06T14:32:10.261Z,85.32
2019-01-06T14:34:57.178Z,84.76
2019-01-06T14:37:57.619Z,85.19
2019-01-06T14:40:41.067Z,84.98
2019-01-06T14:43:38.409Z,85.11
2019-01-06T14:46:25.284Z,84.98
2019-01-06T14:49:16.536Z,84.98
2019-01-06T14:52:19.987Z,85.62
2019-01-06T14:55:08.018Z,85.62
2019-01-06T14:58:05.277Z,85.91
2019-01-06T15:01:05.393Z,85.05
2019-01-06T15:04:08.834Z,85.78
2019-01-06T15:07:02.947Z,85.78
2019-01-06T15:09:58.374Z,85.81
2019-01-06T15:12:45.309Z,85.58
2019-01-06T15:15:32.307Z,85.80
2019-01-06T15:18:20.339Z,85.80
2019-01-06T15:21:11.263Z,85.72
2019-01-06T15:23:59.457Z,85.80
2019-01-06T15:26:47.629Z,85.83
2019-01-06T15:29:51.019Z,85.76
2019-01-06T15:32:31.814Z,85.77
2019-01-06T15:35:22.530Z,86.30
2019-01-06T15:38:16.839Z,86.14
2019-01-06T15:41:15.272Z,85.95
2019-01-06T15:44:02.232Z,85.95
2019-01-06T15:46:50.313Z,85.90
2019-01-06T15:49:41.310Z,85.72
2019-01-06T15:52:28.306Z,86.00
2019-01-06T15:55:28.748Z,86.00
2019-01-06T15:58:17.358Z,86.12
2019-01-06T16:01:03.995Z,86.41
2019-01-06T16:04:10.376Z,86.12
2019-01-06T16:06:48.335Z,86.12
2019-01-06T16:09:54.520Z,85.70
2019-01-06T16:12:45.408Z,85.96
2019-01-06T16:15:36.499Z,85.91
2019-01-06T16:18:36.584Z,86.04
2019-01-06T16:21:40.340Z,85.86
2019-01-06T16:24:40.486Z,85.86
2019-01-06T16:27:34.481Z,85.83
2019-01-06T16:30:21.453Z,85.98
2019-01-06T16:33:28.112Z,85.98
2019-01-06T16:36:16.215Z,85.14
2019-01-06T16:39:16.635Z,85.31
2019-01-06T16:42:03.373Z,85.55
2019-01-06T16:45:04.286Z,85.95
2019-01-06T16:47:52.470Z,86.11
2019-01-06T16:50:40.488Z,86.40
2019-01-06T16:53:39.772Z,85.94
2019-01-06T16:56:37.245Z,85.94
2019-01-06T16:59:34.508Z,86.58
2019-01-06T17:02:21.248Z,86.26
2019-01-06T17:05:09.230Z,85.68
2019-01-06T17:08:12.552Z,85.68
2019-01-06T17:10:59.263Z,85.73
2019-01-06T17:13:50.270Z,85.83
2019-01-06T17:16:41.206Z,85.52
2019-01-06T17:19:34.803Z,85.78
2019-01-06T17:22:32.177Z,85.19
2019-01-06T17:25:19.123Z,85.19
2019-01-06T17:28:13.307Z,85.35
2019-01-06T17:31:07.440Z,85.03
2019-01-06T17:34:13.854Z,84.91
2019-01-06T17:36:56.954Z,85.12
2019-01-06T17:39:38.566Z,84.27
2019-01-06T17:42:32.606Z,84.27
2019-01-06T17:45:19.638Z,84.31
2019-01-06T17:48:14.001Z,84.99
2019-01-06T17:51:08.360Z,85.20
2019-01-06T17:53:56.365Z,85.20
2019-01-06T17:56:43.330Z,85.09
2019-01-06T17:59:37.601Z,85.09
2019-01-06T18:02:31.959Z,85.34
2019-01-06T18:05:23.163Z,85.34
2019-01-06T18:08:20.222Z,85.36
2019-01-06T18:11:07.279Z,85.00
2019-01-06T18:14:10.701Z,85.00
2019-01-06T18:16:57.484Z,85.50
2019-01-06T18:19:56.818Z,85.50
2019-01-06T18:22:53.014Z,85.33
2019-01-06T18:25:39.639Z,84.77
2019-01-06T18:28:20.305Z,84.77
2019-01-06T18:31:17.379Z,84.93
2019-01-06T18:34:17.496Z,85.50
2019-01-06T18:37:09.363Z,85.16
2019-01-06T18:40:00.604Z,85.16
2019-01-06T18:42:46.607Z,86.32
2019-01-06T18:45:52.328Z,85.97
2019-01-06T18:48:34.421Z,86.20
2019-01-06T18:51:21.424Z,85.39
2019-01-06T18:54:15.539Z,85.88
2019-01-06T18:57:09.506Z,86.23
2019-01-06T19:00:02.496Z,85.75
2019-01-06T19:02:53.627Z,85.75
2019-01-06T19:05:41.755Z,85.88
2019-01-06T19:08:33.398Z,85.94
2019-01-06T19:11:19.059Z,85.94
2019-01-06T19:14:16.190Z,86.01
2019-01-06T19:17:05.177Z,86.01
2019-01-06T19:19:52.902Z,86.19
2019-01-06T19:22:39.971Z,86.95
2019-01-06T19:25:34.095Z,86.78
2019-01-06T19:28:21.166Z,86.99
2019-01-06T19:31:18.444Z,86.56
2019-01-06T19:34:15.822Z,86.56
2019-01-06T19:37:03.813Z,85.99
2019-01-06T19:39:50.776Z,86.25
2019-01-06T19:42:48.239Z,86.40
2019-01-06T19:45:42.284Z,86.73
2019-01-06T19:48:33.992Z,86.73
2019-01-06T19:51:19.063Z,86.48
2019-01-06T19:54:12.100Z,86.92
2019-01-06T19:57:14.007Z,87.29
2019-01-06T20:00:14.787Z,87.05
2019-01-06T20:03:02.888Z,86.98
2019-01-06T20:06:09.640Z,86.62
2019-01-06T20:08:48.480Z,86.62
2019-01-06T20:11:48.057Z,86.76
2019-01-06T20:14:35.234Z,87.07
2019-01-06T20:17:26.069Z,86.88
2019-01-06T20:20:14.094Z,86.99
2019-01-06T20:23:01.039Z,86.92
2019-01-06T20:25:45.124Z,87.42
2019-01-06T20:28:24.432Z,87.69
2019-01-06T20:31:18.961Z,87.38
2019-01-06T20:34:10.234Z,88.09
2019-01-06T20:37:04.381Z,88.09
2019-01-06T20:39:51.940Z,87.84
2019-01-06T20:42:33.458Z,87.84
2019-01-06T20:45:21.460Z,88.20
2019-01-06T20:48:08.509Z,87.62
2019-01-06T20:51:14.949Z,88.20
2019-01-06T20:54:09.260Z,88.25
2019-01-06T20:56:56.119Z,87.82
2019-01-06T20:59:57.930Z,87.82
2019-01-06T21:02:45.154Z,87.46
2019-01-06T21:05:26.949Z,87.46
2019-01-06T21:08:12.672Z,87.28
2019-01-06T21:11:00.262Z,87.87
2019-01-06T21:13:48.215Z,87.66
2019-01-06T21:16:54.584Z,88.36
2019-01-06T21:19:57.816Z,88.08
2019-01-06T21:22:44.662Z,88.08
2019-01-06T21:25:31.490Z,88.53
2019-01-06T21:28:15.727Z,88.46
2019-01-06T21:31:02.353Z,87.91
2019-01-06T21:33:56.872Z,88.25
2019-01-06T21:36:36.483Z,88.29
2019-01-06T21:39:25.451Z,88.29
2019-01-06T21:42:27.152Z,88.18
2019-01-06T21:45:15.270Z,88.18
2019-01-06T21:48:01.908Z,88.18
2019-01-06T21:50:49.922Z,89.33
2019-01-06T21:53:41.420Z,89.33
2019-01-06T21:56:29.792Z,88.76
2019-01-06T21:59:12.548Z,88.76
2019-01-06T22:02:00.140Z,88.92
2019-01-06T22:04:51.023Z,89.11
2019-01-06T22:07:45.621Z,89.60
2019-01-06T22:10:30.504Z,89.85
2019-01-06T22:13:16.054Z,89.85
2019-01-06T22:16:19.177Z,89.44
2019-01-06T22:19:10.264Z,89.83
2019-01-06T22:21:58.239Z,90.07
2019-01-06T22:24:49.011Z,90.11
2019-01-06T22:27:36.161Z,90.13
2019-01-06T22:30:25.057Z,90.13
2019-01-06T22:33:16.261Z,90.28
2019-01-06T22:35:59.563Z,90.00
2019-01-06T22:38:47.551Z,90.00
2019-01-06T22:41:33.095Z,89.72
2019-01-06T22:44:21.188Z,89.69
2019-01-06T22:47:18.109Z,89.69
2019-01-06T22:50:06.178Z,90.12
2019-01-06T22:52:52.939Z,90.12
2019-01-06T22:55:43.924Z,90.58
2019-01-06T22:58:37.851Z,90.03
2019-01-06T23:01:20.003Z,90.95
2019-01-06T23:04:05.379Z,91.26
2019-01-06T23:06:46.881Z,91.26
2019-01-06T23:09:33.833Z,91.42
2019-01-06T23:12:24.949Z,91.48
2019-01-06T23:15:11.958Z,90.89
2019-01-06T23:18:06.943Z,90.97
2019-01-06T23:20:53.870Z,91.17
2019-01-06T23:23:57.455Z,91.17
2019-01-06T23:26:40.313Z,91.44
2019-01-06T23:29:27.000Z,91.76
2019-01-06T23:32:24.407Z,91.76
2019-01-06T23:35:24.477Z,91.82
2019-01-06T23:38:24.815Z,91.82
2019-01-06T23:41:19.152Z,92.16
2019-01-06T23:44:06.064Z,90.89
2019-01-06T23:46:48.641Z,90.89
2019-01-06T23:49:43.322Z,91.63
2019-01-06T23:52:25.097Z,92.08
2019-01-06T23:55:12.041Z,92.25
2019-01-06T23:57:55.556Z,92.25
